createdAt,value
2018-09-24T00:00:59.094Z,10.29
2018-09-24T00:03:27.782Z,10.27
2018-09-24T00:05:56.486Z,10.21
2018-09-24T00:08:25.185Z,10.25
2018-09-24T00:10:53.758Z,10.24
2018-09-24T00:13:22.286Z,10.16
2018-09-24T00:15:51.040Z,10.17
2018-09-24T00:18:19.509Z,10.14
2018-09-24T00:20:48.193Z,10.17
2018-09-24T00:23:16.689Z,10.10
2018-09-24T00:25:45.548Z,10.07
2018-09-24T00:28:14.337Z,10.01
2018-09-24T00:30:43.012Z,10.04
2018-09-24T00:33:11.443Z,10.00
2018-09-24T00:35:40.275Z,10.01
2018-09-24T00:38:08.792Z,9.99
2018-09-24T00:40:37.979Z,10.04
2018-09-24T00:43:06.681Z,10.07
2018-09-24T00:45:35.274Z,10.11
2018-09-24T00:48:03.917Z,10.12
2018-09-24T00:50:33.051Z,10.12
2018-09-24T00:53:01.612Z,10.05
2018-09-24T00:55:30.209Z,10.00
2018-09-24T00:57:58.825Z,9.95
2018-09-24T01:00:27.359Z,9.94
2018-09-24T01:02:55.826Z,9.89
2018-09-24T01:05:24.405Z,9.95
2018-09-24T01:07:52.925Z,9.96
2018-09-24T01:10:21.903Z,9.88
2018-09-24T01:12:50.814Z,9.88
2018-09-24T01:15:19.351Z,9.90
2018-09-24T01:17:47.959Z,9.89
2018-09-24T01:20:16.851Z,9.90
2018-09-24T01:22:45.411Z,9.88
2018-09-24T01:25:14.033Z,9.89
2018-09-24T01:27:42.595Z,9.89
2018-09-24T01:30:11.396Z,9.84
2018-09-24T01:32:39.876Z,9.79
2018-09-24T01:35:08.355Z,9.79
2018-09-24T01:37:36.939Z,9.73
2018-09-24T01:40:05.527Z,9.71
2018-09-24T01:42:34.320Z,9.75
2018-09-24T01:45:03.070Z,9.79
2018-09-24T01:47:32.516Z,9.76
2018-09-24T01:50:00.954Z,9.74
2018-09-24T01:52:29.672Z,9.73
2018-09-24T01:54:58.275Z,9.70
2018-09-24T01:57:27.235Z,9.67
2018-09-24T01:59:56.893Z,9.69
2018-09-24T02:02:25.480Z,9.67
2018-09-24T02:04:54.633Z,9.66
2018-09-24T02:07:23.186Z,9.65
2018-09-24T02:09:51.801Z,9.62
2018-09-24T02:12:20.253Z,9.64
2018-09-24T02:14:48.777Z,9.63
2018-09-24T02:17:21.323Z,9.58
2018-09-24T02:19:50.508Z,9.60
2018-09-24T02:22:26.326Z,9.53
2018-09-24T02:24:55.742Z,9.58
2018-09-24T02:27:24.511Z,9.60
2018-09-24T02:29:52.991Z,9.62
2018-09-24T02:32:21.925Z,9.61
2018-09-24T02:34:52.224Z,9.62
2018-09-24T02:37:21.177Z,9.64
2018-09-24T02:39:49.931Z,9.68
2018-09-24T02:42:18.691Z,9.68
2018-09-24T02:44:49.289Z,9.69
2018-09-24T02:47:18.209Z,9.69
2018-09-24T02:49:46.949Z,9.70
2018-09-24T02:52:16.099Z,9.66
2018-09-24T02:54:44.659Z,9.67
2018-09-24T02:57:13.348Z,9.69
2018-09-24T02:59:45.455Z,9.68
2018-09-24T03:02:13.976Z,9.65
2018-09-24T03:04:42.729Z,9.67
2018-09-24T03:07:11.263Z,9.75
2018-09-24T03:09:39.746Z,9.77
2018-09-24T03:12:08.298Z,9.73
2018-09-24T03:14:36.824Z,9.72
2018-09-24T03:17:05.267Z,9.77
2018-09-24T03:19:33.747Z,9.76
2018-09-24T03:22:02.455Z,9.83
2018-09-24T03:24:31.148Z,9.87
2018-09-24T03:26:59.706Z,9.87
2018-09-24T03:29:28.277Z,9.84
2018-09-24T03:31:56.794Z,9.85
2018-09-24T03:34:25.569Z,9.85
2018-09-24T03:36:53.977Z,9.88
2018-09-24T03:39:22.543Z,9.89
2018-09-24T03:41:51.149Z,9.93
2018-09-24T03:44:19.583Z,9.95
2018-09-24T03:46:48.135Z,9.95
2018-09-24T03:49:16.644Z,9.93
2018-09-24T03:51:45.098Z,9.87
2018-09-24T03:54:14.112Z,9.83
2018-09-24T03:56:42.638Z,9.82
2018-09-24T03:59:11.152Z,9.80
2018-09-24T04:01:39.600Z,9.77
2018-09-24T04:04:13.325Z,9.77
2018-09-24T04:06:47.116Z,9.74
2018-09-24T04:09:21.114Z,9.72
2018-09-24T04:11:55.016Z,9.74
2018-09-24T04:14:28.800Z,9.75
2018-09-24T04:17:02.787Z,9.73
2018-09-24T04:19:36.867Z,9.72
2018-09-24T04:22:14.132Z,9.72
2018-09-24T04:24:47.919Z,9.69
2018-09-24T04:27:21.761Z,9.69
2018-09-24T04:29:55.561Z,9.73
2018-09-24T04:32:29.474Z,9.68
2018-09-24T04:35:03.418Z,9.73
2018-09-24T04:37:37.214Z,9.72
2018-09-24T04:40:11.328Z,9.71
2018-09-24T04:42:45.093Z,9.74
2018-09-24T04:45:19.164Z,9.73
2018-09-24T04:47:52.973Z,9.71
2018-09-24T04:50:26.885Z,9.73
2018-09-24T04:53:00.869Z,9.69
2018-09-24T04:55:34.671Z,9.69
2018-09-24T04:58:08.582Z,9.75
2018-09-24T05:00:42.488Z,9.76
2018-09-24T05:03:16.312Z,9.73
2018-09-24T05:06:03.498Z,9.68
2018-09-24T05:08:37.323Z,9.64
2018-09-24T05:11:11.439Z,9.66
2018-09-24T05:13:45.204Z,9.65
2018-09-24T05:16:19.151Z,9.61
2018-09-24T05:18:52.825Z,9.60
2018-09-24T05:21:26.610Z,9.59
2018-09-24T05:24:00.425Z,9.55
2018-09-24T05:26:34.372Z,9.53
2018-09-24T05:29:08.116Z,9.52
2018-09-24T05:31:42.139Z,9.52
2018-09-24T05:34:16.233Z,9.50
2018-09-24T05:36:49.955Z,9.50
2018-09-24T05:39:23.707Z,9.54
2018-09-24T05:41:57.625Z,9.52
2018-09-24T05:44:31.755Z,9.52
2018-09-24T05:47:05.987Z,9.54
2018-09-24T05:49:39.954Z,9.58
2018-09-24T05:52:13.590Z,9.57
2018-09-24T05:54:47.464Z,9.60
2018-09-24T05:57:21.301Z,9.60
2018-09-24T05:59:54.981Z,9.61
2018-09-24T06:02:28.882Z,9.66
2018-09-24T06:05:03.239Z,9.67
2018-09-24T06:07:37.085Z,9.66
2018-09-24T06:10:11.051Z,9.68
2018-09-24T06:12:44.843Z,9.69
2018-09-24T06:15:18.727Z,9.73
2018-09-24T06:17:56.126Z,9.74
2018-09-24T06:20:31.291Z,9.74
2018-09-24T06:23:05.915Z,9.78
2018-09-24T06:25:39.760Z,9.86
2018-09-24T06:28:13.754Z,9.89
2018-09-24T06:30:48.041Z,9.94
2018-09-24T06:33:21.883Z,9.94
2018-09-24T06:35:55.743Z,10.01
2018-09-24T06:38:29.651Z,10.06
2018-09-24T06:41:03.465Z,10.08
2018-09-24T06:43:37.659Z,10.11
2018-09-24T06:46:12.145Z,10.22
2018-09-24T06:48:45.883Z,10.35
2018-09-24T06:51:19.818Z,10.46
2018-09-24T06:53:53.514Z,10.52
2018-09-24T06:56:27.264Z,10.59
2018-09-24T06:59:01.127Z,10.65
2018-09-24T07:01:34.931Z,10.72
2018-09-24T07:04:08.783Z,10.80
2018-09-24T07:06:47.559Z,10.91
2018-09-24T07:09:21.821Z,11.07
2018-09-24T07:11:55.569Z,11.12
2018-09-24T07:14:29.281Z,11.14
2018-09-24T07:17:03.198Z,11.09
2018-09-24T07:19:37.019Z,11.06
2018-09-24T07:22:10.699Z,11.07
2018-09-24T07:24:44.615Z,10.97
2018-09-24T07:27:19.134Z,11.00
2018-09-24T07:29:52.930Z,11.03
2018-09-24T07:32:27.207Z,11.01
2018-09-24T07:35:00.990Z,11.07
2018-09-24T07:37:35.429Z,11.14
2018-09-24T07:40:09.185Z,11.21
2018-09-24T07:42:43.016Z,11.29
2018-09-24T07:45:16.783Z,11.30
2018-09-24T07:47:51.099Z,11.29
2018-09-24T07:50:24.938Z,11.35
2018-09-24T07:52:59.539Z,11.44
2018-09-24T07:55:33.473Z,11.49
2018-09-24T07:58:07.762Z,11.61
2018-09-24T08:00:41.783Z,11.71
2018-09-24T08:03:15.675Z,11.80
2018-09-24T08:05:49.504Z,11.83
2018-09-24T08:08:23.251Z,11.85
2018-09-24T08:10:57.157Z,11.85
2018-09-24T08:13:31.159Z,11.79
2018-09-24T08:16:05.139Z,11.70
2018-09-24T08:18:39.068Z,11.64
2018-09-24T08:21:13.050Z,11.67
2018-09-24T08:23:46.912Z,11.76
2018-09-24T08:26:20.701Z,11.85
2018-09-24T08:28:54.417Z,11.94
2018-09-24T08:31:28.721Z,11.94
2018-09-24T08:34:02.383Z,11.92
2018-09-24T08:36:36.334Z,11.88
2018-09-24T08:39:12.183Z,11.79
2018-09-24T08:41:46.346Z,11.74
2018-09-24T08:44:20.311Z,11.69
2018-09-24T08:46:55.298Z,11.64
2018-09-24T08:49:29.070Z,11.66
2018-09-24T08:52:02.778Z,11.69
2018-09-24T08:54:37.701Z,11.70
2018-09-24T08:57:12.317Z,11.69
2018-09-24T08:59:46.076Z,11.67
2018-09-24T09:02:20.388Z,11.68
2018-09-24T09:04:54.083Z,11.69
2018-09-24T09:07:27.860Z,11.75
2018-09-24T09:10:01.839Z,11.95
2018-09-24T09:12:35.732Z,12.13
2018-09-24T09:15:09.693Z,12.15
2018-09-24T09:17:44.059Z,12.11
2018-09-24T09:20:19.523Z,12.16
2018-09-24T09:22:53.267Z,12.32
2018-09-24T09:25:32.547Z,12.59
2018-09-24T09:28:06.481Z,12.92
2018-09-24T09:30:40.389Z,13.24
2018-09-24T09:33:14.036Z,13.65
2018-09-24T09:35:48.017Z,13.94
2018-09-24T09:38:21.943Z,14.00
2018-09-24T09:40:57.710Z,13.75
2018-09-24T09:43:32.774Z,13.50
2018-09-24T09:46:06.629Z,13.38
2018-09-24T09:48:40.453Z,13.26
2018-09-24T09:51:14.315Z,13.10
2018-09-24T09:53:48.082Z,12.81
2018-09-24T09:56:21.842Z,12.57
2018-09-24T09:58:55.721Z,12.97
2018-09-24T10:01:30.226Z,14.15
2018-09-24T10:04:04.067Z,15.32
2018-09-24T10:06:38.528Z,16.11
2018-09-24T10:09:13.440Z,16.57
2018-09-24T10:11:47.394Z,16.32
2018-09-24T10:14:21.086Z,16.05
2018-09-24T10:16:54.827Z,15.54
2018-09-24T10:19:28.652Z,15.64
2018-09-24T10:22:02.330Z,16.04
2018-09-24T10:24:36.157Z,16.44
2018-09-24T10:27:10.023Z,16.65
2018-09-24T10:29:43.821Z,16.82
2018-09-24T10:32:17.604Z,16.98
2018-09-24T10:34:51.332Z,16.77
2018-09-24T10:37:25.184Z,16.45
2018-09-24T10:39:58.949Z,15.83
2018-09-24T10:42:32.804Z,15.53
2018-09-24T10:45:09.642Z,15.23
2018-09-24T10:47:43.619Z,14.91
2018-09-24T10:50:17.679Z,14.49
2018-09-24T10:52:51.802Z,14.24
2018-09-24T10:55:25.477Z,14.09
2018-09-24T10:57:59.697Z,13.99
2018-09-24T11:00:33.502Z,13.90
2018-09-24T11:03:07.493Z,13.83
2018-09-24T11:05:41.117Z,13.78
2018-09-24T11:08:20.720Z,13.78
2018-09-24T11:10:55.760Z,13.78
2018-09-24T11:13:29.494Z,13.79
2018-09-24T11:16:04.174Z,13.78
2018-09-24T11:18:38.069Z,13.73
2018-09-24T11:21:11.663Z,13.71
2018-09-24T11:23:45.474Z,13.78
2018-09-24T11:28:53.898Z,13.92
2018-09-24T11:31:27.707Z,13.91
2018-09-24T11:34:01.454Z,13.81
2018-09-24T11:36:35.370Z,13.69
2018-09-24T11:39:09.429Z,13.56
2018-09-24T11:41:43.399Z,13.45
2018-09-24T11:44:17.411Z,13.85
2018-09-24T11:46:52.391Z,14.47
2018-09-24T11:49:26.276Z,14.85
2018-09-24T11:52:00.193Z,14.86
2018-09-24T11:54:34.111Z,14.61
2018-09-24T11:57:08.278Z,14.27
2018-09-24T11:59:42.223Z,13.87
2018-09-24T12:02:16.007Z,13.96
2018-09-24T12:04:50.431Z,14.62
2018-09-24T12:07:24.386Z,15.47
2018-09-24T12:09:58.241Z,16.18
2018-09-24T12:12:32.164Z,16.60
2018-09-24T12:15:06.064Z,16.89
2018-09-24T12:17:39.948Z,17.06
2018-09-24T12:20:14.083Z,17.54
2018-09-24T12:22:47.690Z,17.92
2018-09-24T12:25:26.863Z,17.88
2018-09-24T12:28:01.116Z,17.93
2018-09-24T12:30:34.808Z,18.12
2018-09-24T12:33:08.606Z,18.47
2018-09-24T12:38:33.252Z,18.75
2018-09-24T12:41:07.162Z,18.85
2018-09-24T12:43:40.894Z,19.06
2018-09-24T12:46:14.643Z,19.03
2018-09-24T12:48:48.700Z,19.17
2018-09-24T12:51:22.450Z,19.48
2018-09-24T12:53:56.064Z,19.64
2018-09-24T12:56:30.500Z,19.60
2018-09-24T12:59:04.592Z,19.47
2018-09-24T13:01:38.272Z,19.82
2018-09-24T13:04:12.000Z,20.24
2018-09-24T13:06:45.844Z,20.65
2018-09-24T13:09:20.228Z,21.09
2018-09-24T13:11:56.769Z,21.64
2018-09-24T13:14:30.666Z,20.76
2018-09-24T13:17:04.721Z,18.98
2018-09-24T13:19:38.289Z,17.47
2018-09-24T13:22:12.509Z,16.41
2018-09-24T13:24:46.235Z,15.55
2018-09-24T13:27:19.942Z,14.90
2018-09-24T13:29:54.020Z,14.43
2018-09-24T13:32:27.828Z,14.11
2018-09-24T13:35:01.735Z,13.84
2018-09-24T13:37:35.646Z,13.94
2018-09-24T13:40:09.641Z,14.08
2018-09-24T13:42:43.156Z,14.12
2018-09-24T13:45:16.919Z,14.29
2018-09-24T13:47:50.766Z,14.61
2018-09-24T13:50:25.018Z,14.90
2018-09-24T13:52:58.836Z,15.12
2018-09-24T13:55:33.522Z,15.27
2018-09-24T13:58:07.537Z,15.43
2018-09-24T14:00:41.333Z,15.52
2018-09-24T14:03:15.085Z,15.62
2018-09-24T14:05:48.904Z,15.74
2018-09-24T14:08:23.242Z,15.73
2018-09-24T14:10:57.968Z,15.63
2018-09-24T14:13:32.833Z,15.53
2018-09-24T14:16:07.820Z,15.38
2018-09-24T14:18:41.933Z,15.14
2018-09-24T14:21:16.749Z,14.81
2018-09-24T14:23:50.475Z,14.51
2018-09-24T14:26:24.282Z,14.23
2018-09-24T14:28:58.145Z,14.02
2018-09-24T14:31:32.028Z,13.82
2018-09-24T14:34:05.904Z,13.60
2018-09-24T14:36:39.636Z,13.50
2018-09-24T14:39:14.672Z,13.34
2018-09-24T14:41:48.873Z,13.22
2018-09-24T14:44:22.432Z,13.20
2018-09-24T14:46:56.252Z,13.11
2018-09-24T14:49:30.411Z,13.01
2018-09-24T14:52:04.143Z,13.00
2018-09-24T14:54:37.923Z,13.01
2018-09-24T14:57:12.386Z,12.97
2018-09-24T14:59:46.344Z,12.94
2018-09-24T15:02:20.254Z,12.89
2018-09-24T15:04:54.185Z,12.85
2018-09-24T15:07:28.102Z,12.78
2018-09-24T15:10:01.954Z,12.72
2018-09-24T15:12:36.100Z,12.61
2018-09-24T15:15:10.006Z,12.53
2018-09-24T15:17:43.784Z,12.50
2018-09-24T15:20:17.665Z,12.43
2018-09-24T15:22:51.449Z,12.36
2018-09-24T15:25:25.279Z,12.31
2018-09-24T15:28:00.057Z,12.27
2018-09-24T15:30:34.100Z,12.23
2018-09-24T15:33:07.901Z,12.22
2018-09-24T15:35:41.932Z,12.23
2018-09-24T15:38:15.756Z,12.16
2018-09-24T15:40:49.621Z,12.11
2018-09-24T15:43:23.756Z,12.15
2018-09-24T15:46:05.063Z,12.20
2018-09-24T15:48:38.844Z,12.26
2018-09-24T15:51:12.651Z,12.29
2018-09-24T15:53:50.378Z,12.29
2018-09-24T15:56:24.400Z,12.30
2018-09-24T15:58:58.241Z,12.32
2018-09-24T16:01:32.072Z,12.36
2018-09-24T16:04:08.791Z,12.38
2018-09-24T16:06:42.652Z,12.43
2018-09-24T16:09:16.412Z,12.40
2018-09-24T16:11:50.209Z,12.38
2018-09-24T16:14:25.319Z,12.32
2018-09-24T16:16:59.513Z,12.33
2018-09-24T16:19:33.392Z,12.30
2018-09-24T16:22:07.336Z,12.25
2018-09-24T16:24:41.165Z,12.18
2018-09-24T16:27:15.262Z,12.12
2018-09-24T16:29:49.153Z,12.07
2018-09-24T16:32:23.214Z,12.05
2018-09-24T16:34:57.024Z,11.98
2018-09-24T16:37:30.819Z,11.92
2018-09-24T16:40:04.816Z,11.90
2018-09-24T16:42:38.576Z,11.82
2018-09-24T16:45:12.220Z,11.75
2018-09-24T16:47:45.920Z,11.76
2018-09-24T16:50:19.769Z,11.77
2018-09-24T16:52:53.527Z,11.74
2018-09-24T16:55:27.544Z,11.68
2018-09-24T16:58:01.251Z,11.63
2018-09-24T17:00:35.034Z,11.55
2018-09-24T17:03:08.763Z,11.55
2018-09-24T17:05:42.715Z,11.54
2018-09-24T17:08:16.624Z,11.49
2018-09-24T17:10:50.543Z,11.47
2018-09-24T17:13:24.228Z,11.47
2018-09-24T17:15:58.292Z,11.37
2018-09-24T17:18:32.187Z,11.39
2018-09-24T17:21:06.066Z,11.40
2018-09-24T17:23:39.980Z,11.41
2018-09-24T17:26:13.886Z,11.40
2018-09-24T17:28:47.792Z,11.35
2018-09-24T17:31:21.424Z,11.34
2018-09-24T17:33:55.344Z,11.36
2018-09-24T17:36:29.584Z,11.34
2018-09-24T17:39:03.577Z,11.36
2018-09-24T17:41:37.522Z,11.34
2018-09-24T17:44:11.843Z,11.32
2018-09-24T17:46:45.850Z,11.31
2018-09-24T17:49:19.848Z,11.32
2018-09-24T17:51:53.896Z,11.32
2018-09-24T17:54:27.742Z,11.28
2018-09-24T17:57:01.687Z,11.26
2018-09-24T17:59:35.328Z,11.19
2018-09-24T18:02:09.085Z,11.25
2018-09-24T18:04:43.118Z,11.24
2018-09-24T18:07:16.901Z,11.20
2018-09-24T18:09:51.163Z,11.18
2018-09-24T18:15:10.810Z,11.21
2018-09-24T18:17:44.542Z,11.24
2018-09-24T18:20:18.424Z,11.20
2018-09-24T18:22:52.818Z,11.22
2018-09-24T18:25:26.676Z,11.24
2018-09-24T18:28:00.453Z,11.27
2018-09-24T18:30:34.410Z,11.25
2018-09-24T18:33:08.338Z,11.24
2018-09-24T18:35:42.240Z,11.22
2018-09-24T18:38:16.802Z,11.23
2018-09-24T18:40:50.844Z,11.20
2018-09-24T18:43:24.499Z,11.23
2018-09-24T18:46:03.368Z,11.20
2018-09-24T18:48:37.620Z,11.20
2018-09-24T18:51:11.722Z,11.19
2018-09-24T18:53:45.678Z,11.08
2018-09-24T18:56:19.625Z,11.07
2018-09-24T18:58:53.378Z,11.05
2018-09-24T19:01:27.438Z,10.99
2018-09-24T19:04:01.162Z,10.98
2018-09-24T19:06:34.910Z,11.00
2018-09-24T19:09:08.758Z,11.00
2018-09-24T19:11:42.749Z,10.99
2018-09-24T19:14:16.627Z,10.94
2018-09-24T19:16:50.281Z,10.93
2018-09-24T19:19:24.291Z,10.91
2018-09-24T19:21:58.539Z,10.90
2018-09-24T19:24:32.258Z,10.94
2018-09-24T19:27:06.234Z,10.94
2018-09-24T19:29:39.892Z,10.92
2018-09-24T19:32:13.628Z,10.88
2018-09-24T19:34:47.956Z,10.84
2018-09-24T19:37:22.306Z,10.84
2018-09-24T19:39:56.160Z,10.82
2018-09-24T19:42:30.605Z,10.84
2018-09-24T19:45:04.714Z,10.82
2018-09-24T19:47:38.578Z,10.79
2018-09-24T19:50:12.545Z,10.77
2018-09-24T19:52:46.293Z,10.76
2018-09-24T19:55:20.158Z,10.74
2018-09-24T19:57:53.844Z,10.72
2018-09-24T20:00:27.639Z,10.70
2018-09-24T20:03:01.887Z,10.69
2018-09-24T20:05:40.610Z,10.67
2018-09-24T20:08:14.790Z,10.64
2018-09-24T20:10:48.699Z,10.61
2018-09-24T20:13:22.435Z,10.56
2018-09-24T20:15:57.216Z,10.56
2018-09-24T20:18:30.933Z,10.50
2018-09-24T20:21:04.773Z,10.48
2018-09-24T20:23:39.236Z,10.38
2018-09-24T20:26:31.471Z,10.41
2018-09-24T20:29:05.756Z,10.35
2018-09-24T20:31:39.587Z,10.30
2018-09-24T20:34:13.477Z,10.30
2018-09-24T20:37:04.662Z,10.25
2018-09-24T20:39:38.461Z,10.20
2018-09-24T20:42:12.468Z,10.14
2018-09-24T20:44:46.816Z,10.09
2018-09-24T20:47:20.616Z,10.10
2018-09-24T20:49:54.862Z,10.08
2018-09-24T20:52:28.572Z,10.09
2018-09-24T20:55:02.629Z,10.09
2018-09-24T20:57:36.663Z,10.12
2018-09-24T21:00:10.780Z,10.07
2018-09-24T21:02:44.559Z,10.06
2018-09-24T21:05:18.380Z,10.06
2018-09-24T21:07:52.374Z,10.02
2018-09-24T21:10:26.510Z,10.01
2018-09-24T21:13:00.387Z,9.99
2018-09-24T21:15:39.178Z,9.95
2018-09-24T21:18:12.948Z,9.97
2018-09-24T21:20:46.724Z,10.01
2018-09-24T21:23:20.451Z,9.96
2018-09-24T21:25:55.000Z,9.90
2018-09-24T21:28:28.925Z,9.91
2018-09-24T21:31:02.631Z,9.92
2018-09-24T21:33:36.313Z,9.94
2018-09-24T21:36:10.346Z,9.94
2018-09-24T21:38:44.019Z,9.92
2018-09-24T21:41:17.992Z,9.89
2018-09-24T21:43:51.885Z,9.86
2018-09-24T21:46:25.835Z,9.79
2018-09-24T21:48:59.532Z,9.78
2018-09-24T21:51:33.338Z,9.77
2018-09-24T21:54:07.400Z,9.73
2018-09-24T21:56:54.806Z,9.73
2018-09-24T21:59:28.503Z,9.73
2018-09-24T22:02:02.119Z,9.69
2018-09-24T22:04:35.908Z,9.62
2018-09-24T22:07:10.224Z,9.66
2018-09-24T22:09:43.923Z,9.62
2018-09-24T22:12:17.841Z,9.66
2018-09-24T22:14:51.613Z,9.64
2018-09-24T22:17:25.575Z,9.67
2018-09-24T22:20:00.652Z,9.69
2018-09-24T22:22:34.493Z,9.65
2018-09-24T22:25:08.306Z,9.61
2018-09-24T22:27:42.217Z,9.61
2018-09-24T22:30:15.811Z,9.62
2018-09-24T22:32:49.619Z,9.60
2018-09-24T22:35:23.723Z,9.55
2018-09-24T22:37:57.466Z,9.55
2018-09-24T22:40:31.545Z,9.48
2018-09-24T22:43:05.301Z,9.40
2018-09-24T22:45:39.025Z,9.33
2018-09-24T22:48:12.631Z,9.32
2018-09-24T22:50:46.613Z,9.18
2018-09-24T22:53:20.630Z,9.14
2018-09-24T22:55:54.325Z,9.18
2018-09-24T22:58:28.746Z,9.15
2018-09-24T23:01:03.253Z,9.09
2018-09-24T23:03:37.379Z,9.07
2018-09-24T23:06:13.475Z,9.06
2018-09-24T23:08:47.191Z,8.98
2018-09-24T23:11:21.007Z,8.95
2018-09-24T23:13:55.415Z,8.92
2018-09-24T23:16:29.141Z,8.99
2018-09-24T23:19:02.987Z,8.96
2018-09-24T23:21:36.819Z,8.89
2018-09-24T23:24:10.730Z,8.90
2018-09-24T23:26:44.861Z,8.93
2018-09-24T23:29:18.875Z,8.95
2018-09-24T23:31:52.799Z,8.90
2018-09-24T23:34:28.285Z,8.91
2018-09-24T23:37:02.044Z,8.90
2018-09-24T23:39:35.683Z,8.90
2018-09-24T23:42:10.867Z,8.91
2018-09-24T23:44:45.635Z,8.94
2018-09-24T23:47:20.074Z,8.88
2018-09-24T23:49:53.877Z,8.82
2018-09-24T23:52:28.019Z,8.75
2018-09-24T23:55:01.787Z,8.77
2018-09-24T23:57:36.511Z,8.81
